Time;durP1;ratioP1;P1;durP2;ratioP2;P2;SDS_P1;SDS_P2;PMS_P1;PMS_P2;Temp;Humidity;BMP_temperature;BMP_pressure;BME280_temperature;BME280_humidity;BME280_pressure;Samples;Min_cycle;Max_cycle;Signal;HPM_P1;HPM_P2
2022/04/06 00:03:43;;;;;;;6.00;2.40;;;23.60;53.30;;;;;;220462;1267;24440;-53
2022/04/06 00:08:47;;;;;;;7.60;2.70;;;23.60;53.10;;;;;;220585;1267;22740;-55
2022/04/06 00:13:51;;;;;;;6.10;2.90;;;23.70;52.80;;;;;;220197;1267;26647;-54
2022/04/06 00:18:57;;;;;;;7.30;2.90;;;23.70;53.20;;;;;;220488;1267;22604;-54
2022/04/06 00:24:01;;;;;;;7.90;2.80;;;23.60;52.70;;;;;;220696;1267;22688;-55
2022/04/06 00:29:06;;;;;;;6.60;3.00;;;23.50;52.80;;;;;;220890;1265;24224;-54
2022/04/06 00:34:10;;;;;;;5.50;2.40;;;23.40;53.10;;;;;;220698;1265;22537;-55
2022/04/06 00:39:13;;;;;;;6.30;3.00;;;23.40;53.00;;;;;;220581;1268;24049;-53
2022/04/06 00:44:18;;;;;;;5.00;2.00;;;23.30;53.30;;;;;;220549;1267;22528;-53
2022/04/06 00:49:21;;;;;;;5.80;2.50;;;23.30;53.00;;;;;;220709;1266;22856;-54
2022/04/06 00:54:27;;;;;;;5.40;2.20;;;23.30;53.00;;;;;;220665;1267;23792;-54
2022/04/06 00:59:32;;;;;;;5.50;2.00;;;23.30;52.90;;;;;;220813;1265;25498;-51
2022/04/06 01:04:35;;;;;;;5.00;2.10;;;23.20;52.70;;;;;;221062;1268;22606;-50
2022/04/06 01:09:39;;;;;;;6.00;2.40;;;23.20;52.70;;;;;;220446;1268;22583;-53
2022/04/06 01:14:43;;;;;;;5.20;2.30;;;23.30;52.50;;;;;;220686;1267;22551;-55
2022/04/06 01:19:47;;;;;;;4.10;2.10;;;23.40;52.30;;;;;;220548;1268;22659;-55
2022/04/06 01:24:51;;;;;;;6.80;2.30;;;23.50;52.10;;;;;;220803;1266;22746;-52
2022/04/06 01:29:55;;;;;;;7.40;2.20;;;23.60;51.90;;;;;;220831;1267;22610;-53
2022/04/06 01:34:59;;;;;;;5.80;1.90;;;23.70;51.70;;;;;;220917;1265;22626;-54
2022/04/06 01:40:05;;;;;;;4.10;1.90;;;23.70;51.70;;;;;;220930;1268;22609;-54
2022/04/06 01:45:09;;;;;;;4.80;2.10;;;23.80;51.40;;;;;;220957;1267;22528;-49
2022/04/06 01:55:36;;;;;;;4.40;2.00;;;23.60;51.40;;;;;;220820;1267;22567;-53
2022/04/06 02:00:40;;;;;;;5.60;2.10;;;23.60;51.80;;;;;;220414;1267;22534;-52
2022/04/06 02:05:46;;;;;;;5.00;1.80;;;23.50;51.80;;;;;;220671;1265;22548;-54
2022/04/06 02:10:49;;;;;;;5.00;2.10;;;23.40;51.80;;;;;;220622;1266;24244;-51
2022/04/06 02:15:53;;;;;;;5.20;2.10;;;23.30;51.80;;;;;;220269;1269;25034;-55
2022/04/06 02:20:58;;;;;;;3.40;1.90;;;23.20;52.10;;;;;;220786;1267;25332;-55
2022/04/06 02:26:01;;;;;;;4.80;1.90;;;23.10;52.60;;;;;;220752;1266;22581;-57
2022/04/06 02:31:05;;;;;;;7.70;1.80;;;23.00;52.40;;;;;;220823;1266;22758;-53
2022/04/06 02:36:09;;;;;;;6.00;2.30;;;23.00;52.50;;;;;;220283;1267;25332;-54
2022/04/06 02:41:13;;;;;;;4.70;1.90;;;22.90;52.80;;;;;;220327;1267;22560;-53
2022/04/06 02:46:17;;;;;;;4.90;1.50;;;22.90;52.60;;;;;;220587;1267;25353;-53
2022/04/06 02:51:21;;;;;;;5.70;1.60;;;22.90;53.00;;;;;;220763;1265;25349;-51
2022/04/06 02:56:25;;;;;;;4.20;2.00;;;22.90;52.70;;;;;;220463;1267;22670;-53
2022/04/06 03:01:29;;;;;;;3.50;1.70;;;22.80;52.80;;;;;;220640;1267;22556;-51
2022/04/06 03:06:33;;;;;;;3.20;1.50;;;22.80;52.80;;;;;;220847;1267;22835;-55
2022/04/06 03:11:36;;;;;;;3.90;1.60;;;22.80;52.90;;;;;;220164;1266;24189;-52
2022/04/06 03:16:42;;;;;;;4.00;1.70;;;22.70;53.00;;;;;;220430;1267;25343;-50
2022/04/06 03:21:54;;;;;;;3.30;2.00;;;22.70;53.40;;;;;;220832;1269;25424;-55
2022/04/06 03:26:59;;;;;;;2.40;1.50;;;22.60;53.10;;;;;;220854;1266;22623;-54
2022/04/06 03:32:03;;;;;;;3.20;1.60;;;22.60;53.20;;;;;;220918;1268;22637;-55
2022/04/06 03:37:07;;;;;;;5.10;1.80;;;22.60;53.50;;;;;;220913;1269;22634;-51
2022/04/06 03:42:11;;;;;;;3.60;1.80;;;22.50;53.20;;;;;;220496;1267;22527;-53
2022/04/06 03:47:17;;;;;;;4.60;1.80;;;22.50;53.10;;;;;;220553;1267;22549;-52
2022/04/06 03:52:21;;;;;;;3.70;1.50;;;22.50;53.10;;;;;;220325;1267;24380;-51
2022/04/06 03:57:25;;;;;;;4.20;1.50;;;22.50;53.20;;;;;;220376;1267;22621;-50
2022/04/06 04:02:29;;;;;;;2.40;1.20;;;22.40;53.10;;;;;;220804;1269;25343;-51
2022/04/06 04:07:38;;;;;;;4.50;1.60;;;22.40;53.50;;;;;;220654;1265;22680;-54
2022/04/06 04:12:43;;;;;;;3.50;1.60;;;22.40;53.30;;;;;;220576;1267;24099;-54
2022/04/06 04:17:46;;;;;;;3.80;1.60;;;22.40;53.50;;;;;;220830;1266;24320;-53
2022/04/06 04:22:50;;;;;;;3.50;1.60;;;22.30;53.30;;;;;;220774;1267;26705;-54
2022/04/06 04:27:54;;;;;;;2.70;1.40;;;22.40;54.00;;;;;;220875;1268;23072;-52
2022/04/06 04:32:57;;;;;;;2.90;1.40;;;22.60;52.80;;;;;;221023;1265;25316;-52
2022/04/06 04:38:01;;;;;;;4.20;1.70;;;22.90;52.30;;;;;;220518;1268;22534;-51
2022/04/06 04:43:09;;;;;;;2.60;1.40;;;23.10;51.80;;;;;;220571;1266;24246;-52
2022/04/06 04:48:12;;;;;;;4.40;1.80;;;23.20;51.50;;;;;;220856;1270;22615;-55
2022/04/06 04:53:17;;;;;;;2.20;1.20;;;23.30;51.10;;;;;;220519;1268;24417;-52
2022/04/06 04:58:20;;;;;;;3.80;1.60;;;23.50;51.10;;;;;;220505;1266;25484;-57
2022/04/06 05:03:24;;;;;;;4.10;1.70;;;23.50;51.10;;;;;;220160;1267;24438;-49
2022/04/06 05:08:28;;;;;;;3.70;1.50;;;23.60;50.70;;;;;;220207;1268;22544;-53
2022/04/06 05:13:32;;;;;;;2.60;1.30;;;23.70;50.40;;;;;;220296;1267;23154;-53
2022/04/06 05:18:39;;;;;;;3.90;1.50;;;23.60;50.10;;;;;;220266;1267;22786;-50
2022/04/06 05:23:45;;;;;;;2.70;1.10;;;23.60;50.30;;;;;;220332;1267;26742;-50
2022/04/06 05:28:48;;;;;;;4.40;1.10;;;23.50;50.40;;;;;;220678;1265;24203;-55
2022/04/06 05:33:53;;;;;;;3.00;1.50;;;23.50;50.50;;;;;;220617;1267;26572;-54
2022/04/06 05:38:57;;;;;;;4.40;1.40;;;23.40;51.20;;;;;;220754;1267;24286;-52
2022/04/06 05:44:01;;;;;;;3.10;1.40;;;23.30;50.70;;;;;;220689;1267;22587;-51
2022/04/06 05:49:04;;;;;;;3.50;1.70;;;23.30;50.80;;;;;;220327;1268;26149;-52
2022/04/06 05:54:08;;;;;;;5.20;1.90;;;23.30;51.80;;;;;;220551;1265;22692;-54
2022/04/06 05:59:12;;;;;;;5.90;1.80;;;23.20;51.50;;;;;;220190;1268;24270;-53
2022/04/06 06:04:16;;;;;;;6.50;1.50;;;23.20;52.00;;;;;;220240;1268;24246;-55
2022/04/06 06:09:20;;;;;;;3.90;1.60;;;23.20;52.30;;;;;;220638;1268;22680;-51
2022/04/06 06:14:24;;;;;;;5.80;1.40;;;23.20;52.40;;;;;;220580;1269;26577;-51
2022/04/06 06:19:28;;;;;;;5.10;1.80;;;23.10;52.90;;;;;;220496;1269;24412;-50
2022/04/06 06:24:32;;;;;;;4.60;1.80;;;23.20;52.70;;;;;;220237;1265;22552;-53
2022/04/06 06:29:36;;;;;;;4.40;1.60;;;23.10;52.90;;;;;;220699;1268;25410;-49
2022/04/06 06:34:40;;;;;;;6.50;1.80;;;23.10;53.40;;;;;;220333;1268;24159;-53
2022/04/06 06:39:43;;;;;;;5.00;1.60;;;23.00;53.50;;;;;;220551;1265;22995;-52
2022/04/06 06:44:47;;;;;;;7.20;1.80;;;22.90;54.50;;;;;;220189;1265;277691;-53
2022/04/06 06:49:52;;;;;;;8.90;1.70;;;22.90;55.00;;;;;;220687;1265;24670;-48
2022/04/06 06:54:56;;;;;;;8.70;2.10;;;22.90;55.50;;;;;;220362;1267;22579;-50
2022/04/06 07:00:00;;;;;;;11.50;2.30;;;23.10;54.70;;;;;;220506;1268;22840;-49
2022/04/06 07:05:04;;;;;;;10.40;2.40;;;23.00;54.90;;;;;;220446;1268;23175;-50
2022/04/06 07:10:08;;;;;;;12.50;2.20;;;23.00;54.90;;;;;;220572;1265;25403;-52
2022/04/06 07:15:13;;;;;;;7.30;1.70;;;22.90;54.70;;;;;;220282;1268;22527;-54
2022/04/06 07:20:16;;;;;;;5.20;1.50;;;22.70;53.70;;;;;;221773;1268;24270;-50
2022/04/06 07:25:24;;;;;;;6.20;1.60;;;22.60;54.40;;;;;;220624;1265;24290;-50
2022/04/06 07:30:28;;;;;;;4.90;1.60;;;22.60;54.50;;;;;;220648;1265;24428;-54
2022/04/06 07:35:32;;;;;;;2.70;1.30;;;22.60;54.90;;;;;;221392;1266;22548;-51
2022/04/06 07:40:36;;;;;;;3.80;1.40;;;22.60;54.20;;;;;;220581;1265;24215;-50
2022/04/06 07:45:40;;;;;;;4.60;1.70;;;22.50;54.10;;;;;;220548;1265;24271;-52
2022/04/06 07:50:44;;;;;;;6.60;2.00;;;22.50;54.10;;;;;;220678;1265;25233;-50
2022/04/06 07:55:50;;;;;;;3.80;1.60;;;22.50;54.00;;;;;;220465;1265;22543;-52
2022/04/06 08:00:54;;;;;;;4.40;1.80;;;22.40;54.00;;;;;;220806;1266;25471;-58
2022/04/06 08:05:58;;;;;;;3.50;1.70;;;22.40;54.00;;;;;;220407;1268;25459;-53
2022/04/06 08:11:02;;;;;;;2.90;1.50;;;22.40;53.80;;;;;;220739;1267;25298;-51
2022/04/06 08:16:06;;;;;;;4.90;1.50;;;22.50;54.00;;;;;;220638;1265;24457;-50
2022/04/06 08:21:17;;;;;;;2.70;1.30;;;22.40;53.60;;;;;;220736;1268;22727;-49
2022/04/06 08:26:21;;;;;;;4.80;1.60;;;22.40;53.60;;;;;;220687;1267;24391;-53
2022/04/06 08:31:24;;;;;;;5.90;1.70;;;22.30;53.60;;;;;;220831;1265;24224;-49
2022/04/06 08:36:28;;;;;;;4.10;1.80;;;22.30;53.70;;;;;;220821;1265;22532;-51
2022/04/06 08:41:33;;;;;;;3.20;1.30;;;22.20;53.80;;;;;;220680;1265;22684;-51
2022/04/06 08:46:40;;;;;;;3.10;1.70;;;22.20;53.70;;;;;;220588;1265;25987;-50
2022/04/06 08:51:48;;;;;;;2.40;1.40;;;22.30;53.60;;;;;;220637;1267;23037;-49
2022/04/06 08:56:52;;;;;;;3.70;1.90;;;22.50;52.70;;;;;;220668;1265;25317;-50
2022/04/06 09:01:56;;;;;;;3.20;1.50;;;22.80;52.50;;;;;;220682;1265;25354;-51
2022/04/06 09:07:11;;;;;;;3.70;1.70;;;23.00;51.70;;;;;;220503;1265;25306;-54
2022/04/06 09:12:20;;;;;;;2.40;1.60;;;23.10;51.50;;;;;;220376;1265;23961;-53
2022/04/06 09:17:24;;;;;;;4.20;1.60;;;23.20;51.40;;;;;;220285;1265;22821;-53
2022/04/06 09:22:29;;;;;;;2.60;1.30;;;23.40;50.70;;;;;;220261;1265;22625;-54
2022/04/06 09:27:33;;;;;;;4.10;1.50;;;23.50;50.50;;;;;;220683;1266;24426;-50
2022/04/06 09:32:41;;;;;;;3.00;1.40;;;23.60;50.10;;;;;;220443;1265;25276;-53
2022/04/06 09:37:45;;;;;;;3.30;1.50;;;23.70;49.90;;;;;;220477;1265;22980;-49
2022/04/06 09:42:52;;;;;;;3.00;1.40;;;23.70;49.90;;;;;;220460;1267;22554;-51
2022/04/06 09:48:01;;;;;;;2.70;1.50;;;23.60;50.20;;;;;;220969;1265;22596;-55
2022/04/06 09:53:08;;;;;;;2.40;1.30;;;23.60;50.30;;;;;;220851;1265;24882;-49
2022/04/06 09:58:14;;;;;;;2.70;1.60;;;23.50;50.60;;;;;;220419;1265;23043;-49
2022/04/06 10:03:20;;;;;;;4.10;1.40;;;23.50;50.50;;;;;;220412;1266;24251;-55
2022/04/06 10:08:25;;;;;;;4.80;1.50;;;23.50;50.50;;;;;;220792;1267;24371;-52
2022/04/06 10:13:30;;;;;;;3.50;1.70;;;23.40;50.50;;;;;;220976;1265;22559;-52
2022/04/06 10:18:54;;;;;;;3.30;1.60;;;23.40;50.50;;;;;;220866;1265;24425;-55
2022/04/06 10:24:20;;;;;;;2.40;1.40;;;23.40;50.50;;;;;;220732;1265;22616;-52
2022/04/06 10:29:24;;;;;;;4.00;2.10;;;23.40;50.50;;;;;;220230;1268;24281;-54
2022/04/06 10:34:36;;;;;;;4.10;1.50;;;23.40;50.80;;;;;;220725;1267;23980;-52
2022/04/06 10:39:57;;;;;;;3.20;1.70;;;23.40;50.80;;;;;;220551;1267;22531;-52
2022/04/06 10:45:05;;;;;;;3.00;1.70;;;23.50;50.30;;;;;;220616;1265;22950;-54
2022/04/06 10:50:11;;;;;;;2.70;1.40;;;23.60;50.00;;;;;;220974;1267;25354;-52
2022/04/06 10:55:23;;;;;;;3.30;1.80;;;23.80;49.60;;;;;;220750;1265;25579;-53
2022/04/06 11:00:31;;;;;;;2.60;1.50;;;23.90;49.60;;;;;;220307;1268;25234;-49
2022/04/06 11:05:50;;;;;;;2.20;1.40;;;24.00;49.10;;;;;;220701;1266;24320;-50
2022/04/06 11:11:45;;;;;;;3.50;1.50;;;23.90;49.10;;;;;;220146;1268;22552;-52
2022/04/06 11:16:49;;;;;;;2.70;1.60;;;23.90;49.20;;;;;;220072;1265;24286;-51
2022/04/06 11:21:56;;;;;;;3.40;1.50;;;23.80;49.10;;;;;;220711;1265;22548;-54
2022/04/06 11:27:00;;;;;;;3.20;1.50;;;23.80;49.40;;;;;;220440;1265;24120;-51
2022/04/06 11:32:04;;;;;;;3.20;1.60;;;23.70;49.90;;;;;;220637;1265;24208;-53
2022/04/06 11:37:10;;;;;;;2.60;1.50;;;23.60;49.50;;;;;;220740;1265;24208;-59
2022/04/06 11:42:18;;;;;;;3.10;1.80;;;23.60;49.60;;;;;;220357;1265;25352;-53
2022/04/06 11:47:35;;;;;;;2.40;1.20;;;23.50;49.90;;;;;;220159;1265;22752;-56
2022/04/06 11:52:42;;;;;;;2.90;1.60;;;23.40;49.80;;;;;;220427;1265;22676;-51
2022/04/06 11:57:49;;;;;;;2.30;1.50;;;23.30;50.20;;;;;;220482;1266;22664;-53
2022/04/06 12:02:56;;;;;;;3.10;1.60;;;23.30;50.10;;;;;;220478;1267;22636;-53
2022/04/06 12:08:08;;;;;;;3.20;1.40;;;23.20;50.10;;;;;;220237;1265;22806;-49
2022/04/06 12:13:11;;;;;;;2.20;1.40;;;23.30;50.10;;;;;;220641;1266;22980;-54
2022/04/06 12:18:21;;;;;;;2.90;1.60;;;23.20;50.10;;;;;;220704;1265;22746;-54
2022/04/06 12:23:26;;;;;;;3.00;1.30;;;23.20;50.20;;;;;;219930;1268;22549;-52
2022/04/06 12:28:30;;;;;;;2.40;1.30;;;23.10;50.10;;;;;;220395;1265;22542;-51
2022/04/06 12:33:36;;;;;;;2.50;1.30;;;23.10;50.20;;;;;;220225;1266;25472;-53
2022/04/06 12:38:43;;;;;;;2.80;1.50;;;23.10;50.20;;;;;;220232;1266;25403;-52
2022/04/06 12:43:47;;;;;;;2.70;1.60;;;23.10;50.60;;;;;;220496;1266;22664;-53
2022/04/06 12:48:50;;;;;;;2.50;1.40;;;23.10;49.80;;;;;;220365;1266;22754;-53
2022/04/06 12:54:17;;;;;;;3.50;1.60;;;23.00;49.20;;;;;;220229;1266;22538;-51
2022/04/06 12:59:20;;;;;;;3.30;1.80;;;23.00;49.20;;;;;;220163;1265;24245;-48
2022/04/06 13:04:27;;;;;;;3.20;1.90;;;23.00;49.00;;;;;;220588;1266;22690;-45
2022/04/06 13:09:32;;;;;;;3.30;1.90;;;22.90;48.60;;;;;;220585;1265;22731;-44
2022/04/06 13:14:36;;;;;;;3.40;1.70;;;22.90;48.60;;;;;;220230;1265;22771;-45
2022/04/06 13:19:40;;;;;;;3.00;1.80;;;22.90;48.30;;;;;;220625;1265;22538;-47
2022/04/06 13:24:44;;;;;;;3.40;1.80;;;22.90;48.30;;;;;;220267;1266;25343;-50
2022/04/06 13:29:48;;;;;;;3.50;2.10;;;22.80;48.20;;;;;;220741;1265;25286;-52
2022/04/06 13:34:53;;;;;;;3.00;1.80;;;22.80;48.00;;;;;;220181;1265;24402;-50
2022/04/06 13:39:57;;;;;;;3.10;1.80;;;22.80;47.70;;;;;;220343;1267;26488;-47
2022/04/06 13:45:02;;;;;;;4.60;2.20;;;22.80;47.80;;;;;;220286;1267;22541;-47
2022/04/06 13:50:07;;;;;;;4.20;1.70;;;22.80;48.40;;;;;;220238;1267;24211;-47
2022/04/06 13:55:16;;;;;;;2.90;2.00;;;22.80;48.70;;;;;;220234;1265;26635;-49
2022/04/06 14:00:21;;;;;;;5.10;2.10;;;22.70;49.00;;;;;;220849;1265;24055;-53
2022/04/06 14:05:26;;;;;;;3.50;2.10;;;22.80;49.10;;;;;;220554;1265;22523;-48
2022/04/06 14:10:29;;;;;;;2.40;1.50;;;22.80;49.00;;;;;;220246;1265;25028;-49
2022/04/06 14:15:33;;;;;;;3.30;1.80;;;22.80;49.10;;;;;;220696;1267;22574;-51
2022/04/06 14:20:37;;;;;;;3.60;2.00;;;22.70;48.80;;;;;;220431;1267;22836;-52
2022/04/06 14:25:42;;;;;;;3.20;1.80;;;22.70;48.80;;;;;;220639;1267;24422;-51
2022/04/06 14:30:49;;;;;;;2.90;1.70;;;22.70;49.00;;;;;;220303;1266;25249;-51
2022/04/06 14:35:53;;;;;;;3.70;2.00;;;22.70;49.10;;;;;;220475;1267;22550;-52
2022/04/06 14:41:07;;;;;;;4.00;2.10;;;22.70;49.10;;;;;;220308;1268;22606;-50
2022/04/06 14:46:11;;;;;;;3.50;1.80;;;22.70;48.90;;;;;;220645;1266;24251;-50
2022/04/06 14:51:15;;;;;;;2.50;1.70;;;22.70;49.10;;;;;;220666;1266;22991;-48
2022/04/06 14:56:30;;;;;;;2.60;1.50;;;22.70;49.10;;;;;;220309;1266;25376;-47
2022/04/06 15:01:44;;;;;;;2.90;1.50;;;22.70;49.00;;;;;;220382;1266;22534;-50
2022/04/06 15:06:49;;;;;;;5.80;2.40;;;22.60;49.00;;;;;;220532;1266;25306;-49
2022/04/06 15:11:56;;;;;;;6.70;2.00;;;22.70;49.80;;;;;;220637;1266;25309;-46
2022/04/06 15:17:04;;;;;;;3.50;1.80;;;22.70;49.60;;;;;;220690;1267;23946;-45
2022/04/06 15:22:09;;;;;;;15.60;1.90;;;22.60;49.50;;;;;;220900;1265;22558;-43
2022/04/06 15:27:14;;;;;;;9.10;2.40;;;22.70;52.10;;;;;;220795;1265;25312;-44
2022/04/06 15:32:20;;;;;;;7.40;3.20;;;22.70;53.40;;;;;;220477;1267;23937;-45
2022/04/06 15:37:29;;;;;;;8.70;2.30;;;22.70;54.30;;;;;;220547;1265;22609;-48
2022/04/06 15:42:37;;;;;;;4.50;2.50;;;22.80;53.90;;;;;;220612;1265;22757;-48
2022/04/06 15:47:41;;;;;;;8.20;2.30;;;22.80;53.70;;;;;;220903;1265;25419;-48
2022/04/06 15:52:46;;;;;;;10.80;2.90;;;22.80;54.10;;;;;;220566;1265;22529;-48
2022/04/06 15:57:56;;;;;;;9.80;3.10;;;22.80;54.10;;;;;;220788;1265;22984;-46
2022/04/06 16:02:59;;;;;;;13.60;2.50;;;22.70;54.30;;;;;;220670;1265;25566;-47
2022/04/06 16:08:04;;;;;;;6.50;2.40;;;22.80;54.30;;;;;;220631;1265;25580;-47
2022/04/06 16:13:08;;;;;;;13.00;2.60;;;22.80;54.10;;;;;;220286;1265;22705;-48
2022/04/06 16:18:12;;;;;;;10.40;2.50;;;22.80;54.00;;;;;;220322;1265;22745;-47
2022/04/06 16:23:18;;;;;;;6.70;2.60;;;22.70;54.00;;;;;;220751;1267;25344;-47
2022/04/06 16:28:23;;;;;;;7.10;2.30;;;22.70;54.00;;;;;;220633;1265;22563;-46
2022/04/06 16:33:26;;;;;;;9.40;1.80;;;22.70;53.50;;;;;;220709;1265;22697;-46
2022/04/06 16:38:34;;;;;;;8.30;2.60;;;22.70;53.20;;;;;;220391;1265;24429;-52
2022/04/06 16:43:38;;;;;;;6.90;1.90;;;22.70;53.20;;;;;;220709;1266;22786;-48
2022/04/06 16:48:43;;;;;;;5.90;2.40;;;22.70;52.90;;;;;;220413;1266;25615;-49
2022/04/06 16:53:47;;;;;;;12.10;3.00;;;22.60;53.00;;;;;;220430;1265;24215;-47
2022/04/06 16:58:55;;;;;;;5.50;2.30;;;22.70;52.80;;;;;;220144;1268;22703;-48
2022/04/06 17:04:20;;;;;;;20.50;2.60;;;22.60;52.90;;;;;;220515;1266;22538;-48
2022/04/06 17:09:31;;;;;;;13.10;2.30;;;22.60;52.60;;;;;;220411;1266;24107;-46
2022/04/06 17:14:36;;;;;;;7.60;2.40;;;22.60;52.80;;;;;;220475;1266;24265;-47
2022/04/06 17:19:55;;;;;;;5.50;2.30;;;22.60;52.60;;;;;;220467;1266;24301;-50
2022/04/06 17:24:59;;;;;;;5.20;1.90;;;22.60;52.80;;;;;;220137;1266;22681;-47
2022/04/06 17:30:12;;;;;;;6.20;1.80;;;22.60;52.70;;;;;;220702;1266;23676;-45
2022/04/06 17:35:16;;;;;;;8.70;1.90;;;22.50;52.80;;;;;;220603;1266;25365;-46
2022/04/06 17:40:20;;;;;;;14.10;2.40;;;22.60;52.50;;;;;;220324;1266;22887;-47
2022/04/06 17:45:30;;;;;;;9.80;2.10;;;22.50;52.60;;;;;;220530;1266;25061;-49
2022/04/06 17:50:36;;;;;;;7.20;2.50;;;22.50;52.90;;;;;;220857;1266;22791;-48
2022/04/06 17:55:43;;;;;;;9.10;1.90;;;22.50;52.30;;;;;;220649;1267;25622;-50
2022/04/06 18:00:52;;;;;;;10.70;2.00;;;22.60;52.40;;;;;;220660;1267;22531;-46
2022/04/06 18:05:56;;;;;;;9.10;2.10;;;22.60;52.20;;;;;;220353;1267;25087;-49
2022/04/06 18:16:36;;;;;;;12.20;2.50;;;22.50;52.30;;;;;;220410;1268;22722;-47
2022/04/06 18:21:41;;;;;;;14.20;2.90;;;22.50;52.20;;;;;;220822;1267;25611;-52
2022/04/06 18:26:51;;;;;;;13.20;2.50;;;22.50;52.60;;;;;;220501;1267;25453;-46
2022/04/06 18:31:58;;;;;;;13.50;2.50;;;22.50;52.30;;;;;;220577;1266;22533;-47
2022/04/06 18:37:08;;;;;;;9.00;2.40;;;22.50;52.00;;;;;;220484;1267;24132;-46
2022/04/06 18:42:15;;;;;;;10.10;2.60;;;22.50;52.60;;;;;;220549;1267;278827;-47
2022/04/06 18:47:26;;;;;;;19.90;3.80;;;22.40;52.60;;;;;;220672;1267;24277;-47
2022/04/06 18:52:31;;;;;;;18.60;3.20;;;22.50;53.20;;;;;;220876;1267;22600;-46
2022/04/06 18:57:39;;;;;;;5.90;2.60;;;22.50;53.60;;;;;;220787;1267;22601;-47
2022/04/06 19:03:06;;;;;;;17.40;3.50;;;22.40;53.60;;;;;;220617;1265;22525;-49
2022/04/06 19:08:11;;;;;;;9.60;2.90;;;22.40;54.00;;;;;;220816;1267;25400;-49
2022/04/06 19:13:16;;;;;;;10.30;3.00;;;22.40;53.70;;;;;;220417;1267;22617;-48
2022/04/06 19:18:22;;;;;;;8.90;2.90;;;22.40;53.70;;;;;;220314;1266;22660;-54
2022/04/06 19:23:26;;;;;;;11.20;3.50;;;22.40;53.60;;;;;;220326;1268;24384;-49
2022/04/06 19:28:30;;;;;;;11.90;3.10;;;22.40;53.10;;;;;;220364;1267;22616;-45
2022/04/06 19:33:37;;;;;;;17.60;4.10;;;22.30;52.80;;;;;;220488;1267;25357;-50
2022/04/06 19:38:47;;;;;;;10.70;3.10;;;22.40;52.80;;;;;;220893;1267;22612;-47
2022/04/06 19:43:57;;;;;;;10.10;3.40;;;22.40;52.30;;;;;;220841;1267;22765;-47
2022/04/06 19:49:08;;;;;;;16.60;3.90;;;22.40;52.00;;;;;;220570;1265;24403;-50
2022/04/06 19:54:14;;;;;;;14.50;3.60;;;22.40;53.20;;;;;;220508;1267;22550;-48
2022/04/06 19:59:19;;;;;;;14.50;3.60;;;22.30;53.70;;;;;;220319;1269;26535;-46
2022/04/06 20:04:24;;;;;;;16.10;3.90;;;22.30;53.00;;;;;;220525;1266;24679;-47
2022/04/06 20:09:28;;;;;;;13.10;4.10;;;22.30;53.60;;;;;;220901;1266;25370;-48
2022/04/06 20:14:32;;;;;;;23.30;5.20;;;22.20;53.10;;;;;;220394;1269;26467;-46
2022/04/06 20:19:36;;;;;;;16.40;5.40;;;22.20;53.60;;;;;;220505;1267;22554;-48
2022/04/06 20:24:43;;;;;;;12.50;5.30;;;22.20;53.50;;;;;;220764;1267;26550;-54
2022/04/06 20:29:48;;;;;;;16.60;5.00;;;22.60;53.10;;;;;;220820;1267;25465;-49
2022/04/06 20:34:57;;;;;;;14.70;5.20;;;22.90;52.10;;;;;;220361;1267;22742;-50
2022/04/06 20:40:03;;;;;;;14.40;5.90;;;23.20;51.60;;;;;;220740;1266;22720;-49
2022/04/06 20:45:09;;;;;;;14.80;5.10;;;23.30;51.40;;;;;;220394;1266;22702;-51
2022/04/06 20:50:16;;;;;;;10.60;5.00;;;23.40;51.10;;;;;;220700;1266;24381;-51
2022/04/06 20:55:21;;;;;;;12.90;4.90;;;23.50;50.90;;;;;;221056;1267;24211;-48
2022/04/06 21:00:25;;;;;;;16.40;5.50;;;23.60;50.90;;;;;;220522;1267;24422;-47
2022/04/06 21:05:30;;;;;;;13.40;5.40;;;23.70;50.60;;;;;;220720;1267;22610;-47
2022/04/06 21:10:34;;;;;;;13.80;5.30;;;23.70;50.50;;;;;;220519;1267;24189;-49
2022/04/06 21:15:37;;;;;;;12.10;5.40;;;23.90;50.30;;;;;;220488;1267;22556;-48
2022/04/06 21:20:42;;;;;;;13.30;5.20;;;23.90;50.20;;;;;;220471;1267;24275;-47
2022/04/06 21:25:46;;;;;;;15.50;5.40;;;23.90;50.10;;;;;;220471;1267;24192;-49
2022/04/06 21:30:50;;;;;;;15.00;5.30;;;23.90;50.50;;;;;;220744;1266;22560;-46
2022/04/06 21:35:54;;;;;;;15.30;5.90;;;23.90;50.70;;;;;;220373;1266;24406;-48
2022/04/06 21:40:57;;;;;;;18.40;5.70;;;23.80;51.00;;;;;;220845;1267;23666;-48
2022/04/06 21:46:01;;;;;;;13.60;5.70;;;23.70;50.70;;;;;;220041;1268;22557;-50
2022/04/06 21:51:05;;;;;;;13.60;6.10;;;23.60;50.90;;;;;;220415;1266;22533;-47
2022/04/06 21:56:08;;;;;;;15.50;6.00;;;23.50;51.10;;;;;;220750;1266;24217;-46
2022/04/06 22:01:13;;;;;;;14.20;5.40;;;23.40;51.20;;;;;;220718;1266;24266;-48
2022/04/06 22:06:18;;;;;;;20.70;5.90;;;23.40;52.40;;;;;;220305;1267;22529;-49
2022/04/06 22:11:22;;;;;;;15.70;5.90;;;23.30;53.30;;;;;;220610;1266;22636;-48
2022/04/06 22:16:26;;;;;;;15.80;7.10;;;23.20;53.60;;;;;;220469;1267;24108;-50
2022/04/06 22:21:31;;;;;;;14.90;5.80;;;23.10;55.70;;;;;;220664;1267;24296;-48
2022/04/06 22:26:35;;;;;;;18.00;6.30;;;23.10;57.00;;;;;;220441;1267;24192;-52
2022/04/06 22:31:45;;;;;;;18.20;6.50;;;23.10;57.10;;;;;;220613;1267;22656;-48
2022/04/06 22:36:56;;;;;;;16.60;5.60;;;23.00;56.80;;;;;;220418;1267;25367;-48
2022/04/06 22:42:00;;;;;;;17.40;5.80;;;23.00;56.90;;;;;;220349;1266;24985;-48
2022/04/06 22:47:04;;;;;;;14.30;5.40;;;22.90;56.80;;;;;;220629;1267;23945;-47
2022/04/06 22:52:07;;;;;;;16.40;5.40;;;22.90;57.10;;;;;;220462;1266;25428;-50
2022/04/06 22:57:11;;;;;;;16.50;6.70;;;22.80;57.00;;;;;;220628;1268;22541;-46
2022/04/06 23:02:17;;;;;;;14.30;5.50;;;22.80;56.60;;;;;;220341;1266;25292;-49
2022/04/06 23:07:21;;;;;;;13.20;5.70;;;22.80;56.70;;;;;;220416;1265;22537;-45
2022/04/06 23:12:25;;;;;;;13.60;5.60;;;22.80;56.60;;;;;;220482;1267;24296;-46
2022/04/06 23:17:29;;;;;;;13.90;5.50;;;22.70;56.40;;;;;;220820;1266;22571;-47
2022/04/06 23:22:32;;;;;;;15.50;6.40;;;22.70;56.20;;;;;;220285;1266;25908;-48
2022/04/06 23:27:36;;;;;;;14.10;5.60;;;22.70;56.50;;;;;;220409;1267;25362;-46
2022/04/06 23:32:40;;;;;;;13.70;5.50;;;22.60;56.30;;;;;;220258;1265;24044;-50
2022/04/06 23:37:53;;;;;;;14.00;5.90;;;22.60;56.10;;;;;;220358;1265;22553;-46
2022/04/06 23:42:56;;;;;;;14.20;5.90;;;22.60;56.00;;;;;;220197;1267;24244;-47
2022/04/06 23:48:01;;;;;;;13.90;5.60;;;22.60;55.80;;;;;;220368;1266;22778;-47
2022/04/06 23:53:05;;;;;;;12.30;5.60;;;22.50;55.60;;;;;;220764;1265;22757;-47
2022/04/06 23:58:11;;;;;;;11.40;5.40;;;22.50;55.60;;;;;;220673;1267;23917;-48
